sensor_id;sensor_type;location;lat;lon;timestamp;pressure;altitude;pressure_sealevel;temperature;humidity
57900;BME280;60605;53.716;19.940;2023-07-30T00:00:31;99363.87;;;17.10;100.00
57900;BME280;60605;53.716;19.940;2023-07-30T00:05:55;99366.71;;;17.17;100.00
57900;BME280;60605;53.716;19.940;2023-07-30T00:10:58;99370.75;;;17.23;100.00
57900;BME280;60605;53.716;19.940;2023-07-30T00:16:02;99378.92;;;17.27;100.00
57900;BME280;60605;53.716;19.940;2023-07-30T00:21:06;99375.63;;;17.30;100.00
57900;BME280;60605;53.716;19.940;2023-07-30T00:26:09;99369.81;;;17.31;100.00
57900;BME280;60605;53.716;19.940;2023-07-30T00:31:13;99367.64;;;17.33;100.00
57900;BME280;60605;53.716;19.940;2023-07-30T00:36:16;99364.35;;;17.34;100.00
57900;BME280;60605;53.716;19.940;2023-07-30T00:41:20;99370.88;;;17.35;100.00
57900;BME280;60605;53.716;19.940;2023-07-30T00:46:24;99370.46;;;17.35;100.00
57900;BME280;60605;53.716;19.940;2023-07-30T00:51:29;99366.75;;;17.29;100.00
57900;BME280;60605;53.716;19.940;2023-07-30T00:56:34;99368.42;;;17.23;100.00
57900;BME280;60605;53.716;19.940;2023-07-30T01:01:41;99370.23;;;17.17;100.00
57900;BME280;60605;53.716;19.940;2023-07-30T01:06:46;99368.66;;;17.16;100.00
57900;BME280;60605;53.716;19.940;2023-07-30T01:11:49;99362.99;;;17.10;100.00
57900;BME280;60605;53.716;19.940;2023-07-30T01:16:54;99362.01;;;17.01;100.00
57900;BME280;60605;53.716;19.940;2023-07-30T01:21:57;99374.28;;;16.90;100.00
57900;BME280;60605;53.716;19.940;2023-07-30T01:27:04;99376.81;;;16.82;100.00
57900;BME280;60605;53.716;19.940;2023-07-30T01:32:11;99379.50;;;16.75;100.00
57900;BME280;60605;53.716;19.940;2023-07-30T01:37:16;99375.77;;;16.71;100.00
57900;BME280;60605;53.716;19.940;2023-07-30T01:42:20;99384.11;;;16.67;100.00
57900;BME280;60605;53.716;19.940;2023-07-30T01:47:23;99391.79;;;16.63;100.00
57900;BME280;60605;53.716;19.940;2023-07-30T01:52:27;99390.98;;;16.63;100.00
57900;BME280;60605;53.716;19.940;2023-07-30T01:57:30;99391.19;;;16.67;100.00
57900;BME280;60605;53.716;19.940;2023-07-30T02:02:33;99396.01;;;16.71;100.00
57900;BME280;60605;53.716;19.940;2023-07-30T02:07:38;99398.53;;;16.74;100.00
57900;BME280;60605;53.716;19.940;2023-07-30T02:12:44;99401.95;;;16.74;100.00
57900;BME280;60605;53.716;19.940;2023-07-30T02:17:48;99407.73;;;16.74;100.00
57900;BME280;60605;53.716;19.940;2023-07-30T02:22:51;99412.64;;;16.75;100.00
57900;BME280;60605;53.716;19.940;2023-07-30T02:27:55;99411.88;;;16.77;100.00
57900;BME280;60605;53.716;19.940;2023-07-30T02:32:59;99405.30;;;16.79;100.00
57900;BME280;60605;53.716;19.940;2023-07-30T02:38:02;99407.41;;;16.81;100.00
57900;BME280;60605;53.716;19.940;2023-07-30T02:43:06;99411.02;;;16.82;100.00
57900;BME280;60605;53.716;19.940;2023-07-30T02:48:10;99412.45;;;16.82;100.00
57900;BME280;60605;53.716;19.940;2023-07-30T02:53:13;99413.98;;;16.83;100.00
57900;BME280;60605;53.716;19.940;2023-07-30T02:58:17;99418.23;;;16.83;100.00
57900;BME280;60605;53.716;19.940;2023-07-30T03:03:20;99422.48;;;16.85;100.00
57900;BME280;60605;53.716;19.940;2023-07-30T03:08:23;99427.05;;;16.86;100.00
57900;BME280;60605;53.716;19.940;2023-07-30T03:13:27;99428.48;;;16.89;100.00
57900;BME280;60605;53.716;19.940;2023-07-30T03:18:30;99434.40;;;16.90;100.00
57900;BME280;60605;53.716;19.940;2023-07-30T03:23:33;99436.92;;;16.91;100.00
57900;BME280;60605;53.716;19.940;2023-07-30T03:28:37;99435.35;;;16.92;100.00
57900;BME280;60605;53.716;19.940;2023-07-30T03:33:43;99438.81;;;16.94;100.00
57900;BME280;60605;53.716;19.940;2023-07-30T03:38:47;99437.92;;;16.95;100.00
57900;BME280;60605;53.716;19.940;2023-07-30T03:43:50;99440.67;;;16.97;100.00
57900;BME280;60605;53.716;19.940;2023-07-30T03:48:54;99442.62;;;16.98;100.00
57900;BME280;60605;53.716;19.940;2023-07-30T03:53:57;99452.65;;;17.01;100.00
57900;BME280;60605;53.716;19.940;2023-07-30T03:59:00;99455.48;;;17.03;100.00
57900;BME280;60605;53.716;19.940;2023-07-30T04:04:04;99459.29;;;17.07;100.00
57900;BME280;60605;53.716;19.940;2023-07-30T04:09:07;99463.35;;;17.14;100.00
57900;BME280;60605;53.716;19.940;2023-07-30T04:14:11;99465.38;;;17.25;100.00
57900;BME280;60605;53.716;19.940;2023-07-30T04:19:14;99468.55;;;17.34;100.00
57900;BME280;60605;53.716;19.940;2023-07-30T04:24:18;99471.36;;;17.45;100.00
57900;BME280;60605;53.716;19.940;2023-07-30T04:29:21;99479.44;;;18.13;100.00
57900;BME280;60605;53.716;19.940;2023-07-30T04:34:24;99480.20;;;18.74;100.00
57900;BME280;60605;53.716;19.940;2023-07-30T04:39:30;99495.46;;;18.85;100.00
57900;BME280;60605;53.716;19.940;2023-07-30T04:44:33;99506.27;;;18.81;100.00
57900;BME280;60605;53.716;19.940;2023-07-30T04:49:36;99509.48;;;18.94;100.00
57900;BME280;60605;53.716;19.940;2023-07-30T04:54:43;99508.80;;;19.28;100.00
57900;BME280;60605;53.716;19.940;2023-07-30T04:59:46;99510.36;;;19.26;100.00
57900;BME280;60605;53.716;19.940;2023-07-30T05:04:50;99507.89;;;19.25;100.00
57900;BME280;60605;53.716;19.940;2023-07-30T05:09:53;99506.44;;;19.29;100.00
57900;BME280;60605;53.716;19.940;2023-07-30T05:14:56;99499.92;;;19.34;100.00
57900;BME280;60605;53.716;19.940;2023-07-30T05:20:00;99502.54;;;19.46;100.00
57900;BME280;60605;53.716;19.940;2023-07-30T05:25:03;99506.63;;;19.75;100.00
57900;BME280;60605;53.716;19.940;2023-07-30T05:30:07;99509.70;;;19.97;100.00
57900;BME280;60605;53.716;19.940;2023-07-30T05:35:11;99512.30;;;20.00;100.00
57900;BME280;60605;53.716;19.940;2023-07-30T05:40:14;99520.77;;;19.94;100.00
57900;BME280;60605;53.716;19.940;2023-07-30T05:45:18;99524.42;;;19.86;100.00
57900;BME280;60605;53.716;19.940;2023-07-30T05:50:21;99530.10;;;19.87;100.00
57900;BME280;60605;53.716;19.940;2023-07-30T05:55:25;99535.24;;;19.84;100.00
57900;BME280;60605;53.716;19.940;2023-07-30T06:00:28;99536.80;;;19.95;100.00
57900;BME280;60605;53.716;19.940;2023-07-30T06:05:32;99540.52;;;20.19;100.00
57900;BME280;60605;53.716;19.940;2023-07-30T06:10:38;99548.92;;;20.38;100.00
57900;BME280;60605;53.716;19.940;2023-07-30T06:15:43;99558.71;;;21.02;100.00
57900;BME280;60605;53.716;19.940;2023-07-30T06:20:47;99562.58;;;21.01;100.00
57900;BME280;60605;53.716;19.940;2023-07-30T06:25:50;99566.79;;;20.81;100.00
57900;BME280;60605;53.716;19.940;2023-07-30T06:30:53;99570.57;;;20.62;100.00
57900;BME280;60605;53.716;19.940;2023-07-30T06:35:57;99567.98;;;20.61;100.00
57900;BME280;60605;53.716;19.940;2023-07-30T06:41:00;99571.73;;;20.94;100.00
57900;BME280;60605;53.716;19.940;2023-07-30T06:46:04;99567.92;;;21.26;99.85
57900;BME280;60605;53.716;19.940;2023-07-30T06:51:09;99575.64;;;21.22;99.05
57900;BME280;60605;53.716;19.940;2023-07-30T06:56:13;99584.02;;;21.00;98.84
57900;BME280;60605;53.716;19.940;2023-07-30T07:01:16;99586.22;;;20.76;99.52
57900;BME280;60605;53.716;19.940;2023-07-30T07:06:20;99581.48;;;20.63;100.00
57900;BME280;60605;53.716;19.940;2023-07-30T07:11:23;79667.27;;;-9.08;79.80
57900;BME280;60605;53.716;19.940;2023-07-30T07:16:27;99587.08;;;20.90;100.00
57900;BME280;60605;53.716;19.940;2023-07-30T07:21:30;99590.50;;;21.16;100.00
57900;BME280;60605;53.716;19.940;2023-07-30T07:26:33;99586.70;;;21.58;100.00
57900;BME280;60605;53.716;19.940;2023-07-30T07:31:37;99590.35;;;22.06;99.40
57900;BME280;60605;53.716;19.940;2023-07-30T07:36:41;99593.21;;;22.49;96.99
57900;BME280;60605;53.716;19.940;2023-07-30T07:41:46;99594.54;;;22.67;93.96
57900;BME280;60605;53.716;19.940;2023-07-30T07:46:50;99596.36;;;22.84;92.78
57900;BME280;60605;53.716;19.940;2023-07-30T07:51:54;99598.66;;;23.07;90.94
57900;BME280;60605;53.716;19.940;2023-07-30T07:56:57;99595.77;;;23.94;89.24
57900;BME280;60605;53.716;19.940;2023-07-30T08:02:02;99601.54;;;25.71;84.19
57900;BME280;60605;53.716;19.940;2023-07-30T08:07:06;99610.05;;;27.51;77.11
57900;BME280;60605;53.716;19.940;2023-07-30T08:12:09;99613.83;;;27.58;70.97
57900;BME280;60605;53.716;19.940;2023-07-30T08:17:12;99608.27;;;27.90;70.72
57900;BME280;60605;53.716;19.940;2023-07-30T08:22:16;99609.70;;;30.57;64.78
57900;BME280;60605;53.716;19.940;2023-07-30T08:27:19;99615.29;;;33.39;58.88
57900;BME280;60605;53.716;19.940;2023-07-30T08:32:22;99623.00;;;34.56;53.35
57900;BME280;60605;53.716;19.940;2023-07-30T08:37:26;99625.38;;;33.60;51.65
57900;BME280;60605;53.716;19.940;2023-07-30T08:42:29;99626.23;;;32.21;52.54
57900;BME280;60605;53.716;19.940;2023-07-30T08:47:32;99629.16;;;31.33;54.81
57900;BME280;60605;53.716;19.940;2023-07-30T08:52:36;99626.77;;;31.07;55.70
57900;BME280;60605;53.716;19.940;2023-07-30T08:57:41;99633.14;;;32.97;54.46
57900;BME280;60605;53.716;19.940;2023-07-30T09:02:54;99635.95;;;35.46;48.85
57900;BME280;60605;53.716;19.940;2023-07-30T09:07:58;99631.98;;;35.73;45.18
57900;BME280;60605;53.716;19.940;2023-07-30T09:13:02;99631.69;;;34.24;46.45
57900;BME280;60605;53.716;19.940;2023-07-30T09:18:06;99632.92;;;34.56;47.94
57900;BME280;60605;53.716;19.940;2023-07-30T09:23:11;99629.45;;;36.05;44.49
57900;BME280;60605;53.716;19.940;2023-07-30T09:28:18;99631.40;;;34.83;44.23
57900;BME280;60605;53.716;19.940;2023-07-30T09:33:21;99633.84;;;33.30;47.05
57900;BME280;60605;53.716;19.940;2023-07-30T09:38:25;99636.86;;;34.29;47.03
57900;BME280;60605;53.716;19.940;2023-07-30T09:43:32;99633.05;;;34.01;46.44
57900;BME280;60605;53.716;19.940;2023-07-30T09:48:35;99633.65;;;34.05;46.39
57900;BME280;60605;53.716;19.940;2023-07-30T09:53:39;99633.48;;;33.28;46.59
57900;BME280;60605;53.716;19.940;2023-07-30T09:58:43;99635.87;;;31.41;49.13
57900;BME280;60605;53.716;19.940;2023-07-30T10:03:47;99640.55;;;30.02;51.61
57900;BME280;60605;53.716;19.940;2023-07-30T10:08:53;99641.65;;;28.91;54.00
57900;BME280;60605;53.716;19.940;2023-07-30T10:13:58;99643.13;;;30.24;54.01
57900;BME280;60605;53.716;19.940;2023-07-30T10:19:01;99645.70;;;31.74;51.99
57900;BME280;60605;53.716;19.940;2023-07-30T10:24:05;99642.06;;;32.03;50.66
57900;BME280;60605;53.716;19.940;2023-07-30T10:29:13;99642.67;;;31.70;50.55
57900;BME280;60605;53.716;19.940;2023-07-30T10:34:18;99639.95;;;31.23;49.75
57900;BME280;60605;53.716;19.940;2023-07-30T10:39:26;99638.70;;;30.67;50.70
57900;BME280;60605;53.716;19.940;2023-07-30T10:44:34;99629.13;;;30.36;51.52
57900;BME280;60605;53.716;19.940;2023-07-30T10:49:39;99635.14;;;30.09;51.76
57900;BME280;60605;53.716;19.940;2023-07-30T10:55:01;99638.99;;;29.60;51.78
57900;BME280;60605;53.716;19.940;2023-07-30T11:00:05;99638.16;;;29.47;52.83
57900;BME280;60605;53.716;19.940;2023-07-30T11:05:13;99640.58;;;29.56;53.53
57900;BME280;60605;53.716;19.940;2023-07-30T11:10:18;99629.98;;;29.44;53.09
57900;BME280;60605;53.716;19.940;2023-07-30T11:15:22;99631.63;;;29.45;53.33
57900;BME280;60605;53.716;19.940;2023-07-30T11:20:25;99635.64;;;29.52;52.79
57900;BME280;60605;53.716;19.940;2023-07-30T11:25:31;99639.51;;;29.41;52.70
57900;BME280;60605;53.716;19.940;2023-07-30T11:30:37;99643.91;;;28.99;52.96
57900;BME280;60605;53.716;19.940;2023-07-30T11:35:41;99645.48;;;28.39;54.12
57900;BME280;60605;53.716;19.940;2023-07-30T11:40:45;99648.23;;;28.01;55.56
57900;BME280;60605;53.716;19.940;2023-07-30T11:46:02;99642.96;;;27.60;56.34
57900;BME280;60605;53.716;19.940;2023-07-30T11:56:26;99638.50;;;26.77;59.72
57900;BME280;60605;53.716;19.940;2023-07-30T12:01:32;99634.53;;;26.57;60.83
57900;BME280;60605;53.716;19.940;2023-07-30T12:06:48;99631.23;;;26.40;61.15
57900;BME280;60605;53.716;19.940;2023-07-30T12:11:54;99627.48;;;26.32;61.76
57900;BME280;60605;53.716;19.940;2023-07-30T12:16:58;99619.85;;;26.39;62.46
57900;BME280;60605;53.716;19.940;2023-07-30T12:22:02;99615.88;;;26.50;62.71
57900;BME280;60605;53.716;19.940;2023-07-30T12:27:06;99615.59;;;26.49;62.12
57900;BME280;60605;53.716;19.940;2023-07-30T12:32:09;99613.89;;;26.30;62.36
57900;BME280;60605;53.716;19.940;2023-07-30T12:37:13;99608.21;;;26.10;63.33
57900;BME280;60605;53.716;19.940;2023-07-30T12:42:17;99610.71;;;26.02;64.32
57900;BME280;60605;53.716;19.940;2023-07-30T12:47:20;99605.38;;;26.14;65.03
57900;BME280;60605;53.716;19.940;2023-07-30T12:52:23;99608.20;;;26.59;65.10
57900;BME280;60605;53.716;19.940;2023-07-30T12:57:28;99608.27;;;27.03;63.07
57900;BME280;60605;53.716;19.940;2023-07-30T13:02:31;99600.40;;;27.23;60.87
57900;BME280;60605;53.716;19.940;2023-07-30T13:07:37;99601.52;;;27.29;60.35
57900;BME280;60605;53.716;19.940;2023-07-30T13:12:41;99596.81;;;27.37;60.30
57900;BME280;60605;53.716;19.940;2023-07-30T13:17:44;99591.34;;;27.50;60.05
57900;BME280;60605;53.716;19.940;2023-07-30T13:22:47;99591.92;;;27.53;60.10
57900;BME280;60605;53.716;19.940;2023-07-30T13:27:51;99584.10;;;27.57;60.46
57900;BME280;60605;53.716;19.940;2023-07-30T13:32:54;99583.36;;;27.64;60.33
57900;BME280;60605;53.716;19.940;2023-07-30T13:37:58;99575.20;;;27.64;59.85
57900;BME280;60605;53.716;19.940;2023-07-30T13:43:01;99566.74;;;27.60;59.26
57900;BME280;60605;53.716;19.940;2023-07-30T13:48:04;99560.54;;;27.39;58.90
57900;BME280;60605;53.716;19.940;2023-07-30T13:53:09;99552.73;;;27.33;59.67
57900;BME280;60605;53.716;19.940;2023-07-30T13:58:12;99551.52;;;27.38;59.74
57900;BME280;60605;53.716;19.940;2023-07-30T14:03:16;99554.11;;;27.51;59.55
57900;BME280;60605;53.716;19.940;2023-07-30T14:08:19;99548.88;;;27.53;59.20
57900;BME280;60605;53.716;19.940;2023-07-30T14:13:24;99545.77;;;27.46;58.83
57900;BME280;60605;53.716;19.940;2023-07-30T14:18:32;99551.52;;;27.31;58.26
57900;BME280;60605;53.716;19.940;2023-07-30T14:23:36;99544.87;;;27.08;58.72
57900;BME280;60605;53.716;19.940;2023-07-30T14:28:39;99539.27;;;26.80;59.90
57900;BME280;60605;53.716;19.940;2023-07-30T14:33:43;99541.36;;;26.64;60.50
57900;BME280;60605;53.716;19.940;2023-07-30T14:38:46;99538.27;;;26.54;61.17
57900;BME280;60605;53.716;19.940;2023-07-30T14:43:50;99540.21;;;26.38;61.48
57900;BME280;60605;53.716;19.940;2023-07-30T14:48:53;99545.61;;;26.16;62.08
57900;BME280;60605;53.716;19.940;2023-07-30T14:53:57;99561.59;;;25.87;64.53
57900;BME280;60605;53.716;19.940;2023-07-30T14:59:01;99559.38;;;25.50;65.90
57900;BME280;60605;53.716;19.940;2023-07-30T15:04:04;99559.46;;;25.32;67.32
57900;BME280;60605;53.716;19.940;2023-07-30T15:09:07;99558.47;;;25.35;68.08
57900;BME280;60605;53.716;19.940;2023-07-30T15:14:11;99559.96;;;25.49;67.48
57900;BME280;60605;53.716;19.940;2023-07-30T15:19:14;99561.86;;;25.65;66.57
57900;BME280;60605;53.716;19.940;2023-07-30T15:24:18;99559.45;;;25.74;66.23
57900;BME280;60605;53.716;19.940;2023-07-30T15:29:21;99554.23;;;25.64;64.79
57900;BME280;60605;53.716;19.940;2023-07-30T15:34:25;99555.27;;;25.44;64.59
57900;BME280;60605;53.716;19.940;2023-07-30T15:39:28;99549.58;;;25.21;64.96
57900;BME280;60605;53.716;19.940;2023-07-30T15:44:32;99549.49;;;25.02;65.24
57900;BME280;60605;53.716;19.940;2023-07-30T15:49:35;99550.30;;;24.85;65.31
57900;BME280;60605;53.716;19.940;2023-07-30T15:54:39;99545.67;;;24.65;65.06
57900;BME280;60605;53.716;19.940;2023-07-30T15:59:46;99544.48;;;24.51;65.22
57900;BME280;60605;53.716;19.940;2023-07-30T16:04:50;99547.77;;;24.38;65.13
57900;BME280;60605;53.716;19.940;2023-07-30T16:09:54;99548.55;;;24.24;64.87
57900;BME280;60605;53.716;19.940;2023-07-30T16:14:57;99541.21;;;24.12;63.91
57900;BME280;60605;53.716;19.940;2023-07-30T16:20:02;99546.64;;;24.00;63.43
57900;BME280;60605;53.716;19.940;2023-07-30T16:25:06;99544.22;;;23.94;64.25
57900;BME280;60605;53.716;19.940;2023-07-30T16:30:11;99538.27;;;23.95;65.05
57900;BME280;60605;53.716;19.940;2023-07-30T16:35:14;99541.20;;;23.94;65.42
57900;BME280;60605;53.716;19.940;2023-07-30T16:40:18;99540.59;;;23.86;65.72
57900;BME280;60605;53.716;19.940;2023-07-30T16:45:22;99541.71;;;23.70;65.97
57900;BME280;60605;53.716;19.940;2023-07-30T16:50:27;99542.05;;;23.46;68.27
57900;BME280;60605;53.716;19.940;2023-07-30T16:55:32;99548.45;;;23.15;71.12
57900;BME280;60605;53.716;19.940;2023-07-30T17:00:35;99547.61;;;22.86;73.60
57900;BME280;60605;53.716;19.940;2023-07-30T17:05:38;99550.09;;;22.65;75.40
57900;BME280;60605;53.716;19.940;2023-07-30T17:10:42;99560.62;;;22.47;77.05
57900;BME280;60605;53.716;19.940;2023-07-30T17:15:46;99562.58;;;22.29;78.13
57900;BME280;60605;53.716;19.940;2023-07-30T17:20:56;99562.62;;;22.13;78.99
57900;BME280;60605;53.716;19.940;2023-07-30T17:26:00;99560.70;;;21.99;79.48
57900;BME280;60605;53.716;19.940;2023-07-30T17:31:04;99554.75;;;21.83;79.82
57900;BME280;60605;53.716;19.940;2023-07-30T17:36:07;99553.61;;;21.69;79.99
57900;BME280;60605;53.716;19.940;2023-07-30T17:41:12;99557.98;;;21.54;80.35
57900;BME280;60605;53.716;19.940;2023-07-30T17:46:15;99566.79;;;21.40;80.71
57900;BME280;60605;53.716;19.940;2023-07-30T17:51:21;99575.20;;;21.27;81.13
57900;BME280;60605;53.716;19.940;2023-07-30T17:56:25;99581.45;;;21.16;81.83
57900;BME280;60605;53.716;19.940;2023-07-30T18:01:28;99580.19;;;21.07;82.62
57900;BME280;60605;53.716;19.940;2023-07-30T18:06:32;99585.66;;;20.99;83.12
57900;BME280;60605;53.716;19.940;2023-07-30T18:11:36;99586.88;;;20.92;83.72
57900;BME280;60605;53.716;19.940;2023-07-30T18:16:40;99580.28;;;20.85;84.38
57900;BME280;60605;53.716;19.940;2023-07-30T18:21:44;99578.90;;;20.80;84.92
57900;BME280;60605;53.716;19.940;2023-07-30T18:26:47;99581.39;;;20.74;85.66
57900;BME280;60605;53.716;19.940;2023-07-30T18:31:51;99576.95;;;20.67;85.86
57900;BME280;60605;53.716;19.940;2023-07-30T18:36:55;99581.85;;;20.58;86.35
57900;BME280;60605;53.716;19.940;2023-07-30T18:41:59;99579.25;;;20.53;87.16
57900;BME280;60605;53.716;19.940;2023-07-30T18:47:03;99581.65;;;20.49;89.08
57900;BME280;60605;53.716;19.940;2023-07-30T18:52:07;99588.08;;;20.45;90.61
57900;BME280;60605;53.716;19.940;2023-07-30T18:57:11;99582.14;;;20.39;91.80
57900;BME280;60605;53.716;19.940;2023-07-30T19:02:14;99579.62;;;20.32;92.53
57900;BME280;60605;53.716;19.940;2023-07-30T19:07:18;99578.10;;;20.24;93.36
57900;BME280;60605;53.716;19.940;2023-07-30T19:12:22;99575.43;;;20.14;94.06
57900;BME280;60605;53.716;19.940;2023-07-30T19:17:25;99579.86;;;20.04;94.20
57900;BME280;60605;53.716;19.940;2023-07-30T19:22:29;99587.14;;;19.95;94.91
57900;BME280;60605;53.716;19.940;2023-07-30T19:27:33;99590.55;;;19.86;95.46
57900;BME280;60605;53.716;19.940;2023-07-30T19:32:36;99593.87;;;19.80;95.07
57900;BME280;60605;53.716;19.940;2023-07-30T19:37:40;99603.85;;;19.76;94.72
57900;BME280;60605;53.716;19.940;2023-07-30T19:42:43;99627.86;;;19.74;94.98
57900;BME280;60605;53.716;19.940;2023-07-30T19:47:47;99659.58;;;19.69;96.23
57900;BME280;60605;53.716;19.940;2023-07-30T19:52:51;99635.81;;;19.58;98.78
57900;BME280;60605;53.716;19.940;2023-07-30T19:57:58;99612.83;;;19.46;100.00
57900;BME280;60605;53.716;19.940;2023-07-30T20:03:02;99625.46;;;19.31;100.00
57900;BME280;60605;53.716;19.940;2023-07-30T20:08:06;99636.73;;;19.17;100.00
57900;BME280;60605;53.716;19.940;2023-07-30T20:13:10;99638.10;;;19.01;100.00
57900;BME280;60605;53.716;19.940;2023-07-30T20:18:14;99625.84;;;18.82;100.00
57900;BME280;60605;53.716;19.940;2023-07-30T20:23:18;99622.26;;;18.66;100.00
57900;BME280;60605;53.716;19.940;2023-07-30T20:28:25;99619.34;;;18.52;100.00
57900;BME280;60605;53.716;19.940;2023-07-30T20:33:29;99615.61;;;18.40;100.00
57900;BME280;60605;53.716;19.940;2023-07-30T20:38:33;99613.05;;;18.34;100.00
57900;BME280;60605;53.716;19.940;2023-07-30T20:43:37;99619.19;;;18.32;100.00
57900;BME280;60605;53.716;19.940;2023-07-30T20:48:45;99624.75;;;18.30;100.00
57900;BME280;60605;53.716;19.940;2023-07-30T20:53:48;99635.38;;;18.28;100.00
57900;BME280;60605;53.716;19.940;2023-07-30T20:58:53;99628.41;;;18.24;100.00
57900;BME280;60605;53.716;19.940;2023-07-30T21:03:56;99631.87;;;18.19;100.00
57900;BME280;60605;53.716;19.940;2023-07-30T21:08:59;99625.39;;;18.13;100.00
57900;BME280;60605;53.716;19.940;2023-07-30T21:14:03;99619.54;;;18.08;100.00
57900;BME280;60605;53.716;19.940;2023-07-30T21:19:06;99620.33;;;18.05;100.00
57900;BME280;60605;53.716;19.940;2023-07-30T21:24:09;99624.32;;;18.00;100.00
57900;BME280;60605;53.716;19.940;2023-07-30T21:29:13;99628.61;;;17.94;100.00
57900;BME280;60605;53.716;19.940;2023-07-30T21:34:17;99625.14;;;17.86;100.00
57900;BME280;60605;53.716;19.940;2023-07-30T21:39:20;99637.94;;;17.75;100.00
57900;BME280;60605;53.716;19.940;2023-07-30T21:44:23;99644.31;;;17.64;100.00
57900;BME280;60605;53.716;19.940;2023-07-30T21:49:28;99640.27;;;17.51;100.00
57900;BME280;60605;53.716;19.940;2023-07-30T21:54:31;99643.42;;;17.40;100.00
57900;BME280;60605;53.716;19.940;2023-07-30T21:59:35;99646.72;;;17.31;100.00
57900;BME280;60605;53.716;19.940;2023-07-30T22:04:38;99639.32;;;17.23;100.00
57900;BME280;60605;53.716;19.940;2023-07-30T22:09:42;99632.70;;;17.19;100.00
57900;BME280;60605;53.716;19.940;2023-07-30T22:14:45;99624.41;;;17.16;100.00
57900;BME280;60605;53.716;19.940;2023-07-30T22:19:49;99621.17;;;17.13;100.00
57900;BME280;60605;53.716;19.940;2023-07-30T22:24:52;99623.34;;;17.09;100.00
57900;BME280;60605;53.716;19.940;2023-07-30T22:29:55;99619.52;;;17.03;100.00
57900;BME280;60605;53.716;19.940;2023-07-30T22:34:59;99612.80;;;16.94;100.00
57900;BME280;60605;53.716;19.940;2023-07-30T22:40:03;99611.18;;;16.85;100.00
57900;BME280;60605;53.716;19.940;2023-07-30T22:45:09;99614.36;;;16.74;100.00
57900;BME280;60605;53.716;19.940;2023-07-30T22:50:13;99617.67;;;16.64;100.00
57900;BME280;60605;53.716;19.940;2023-07-30T22:55:17;99625.87;;;16.55;100.00
57900;BME280;60605;53.716;19.940;2023-07-30T23:00:21;99626.17;;;16.44;100.00
57900;BME280;60605;53.716;19.940;2023-07-30T23:05:24;99621.55;;;16.35;100.00
57900;BME280;60605;53.716;19.940;2023-07-30T23:10:27;99615.05;;;16.27;100.00
57900;BME280;60605;53.716;19.940;2023-07-30T23:15:33;99615.02;;;16.18;100.00
57900;BME280;60605;53.716;19.940;2023-07-30T23:20:37;99615.50;;;16.10;100.00
57900;BME280;60605;53.716;19.940;2023-07-30T23:25:40;99609.80;;;16.07;100.00
57900;BME280;60605;53.716;19.940;2023-07-30T23:30:43;99610.50;;;16.05;100.00
57900;BME280;60605;53.716;19.940;2023-07-30T23:35:47;99613.35;;;15.99;100.00
57900;BME280;60605;53.716;19.940;2023-07-30T23:40:51;99610.39;;;15.93;100.00
57900;BME280;60605;53.716;19.940;2023-07-30T23:45:54;99609.34;;;15.89;100.00
57900;BME280;60605;53.716;19.940;2023-07-30T23:50:58;99606.95;;;15.86;100.00
57900;BME280;60605;53.716;19.940;2023-07-30T23:56:08;99604.15;;;15.82;100.00
